Time;durP1;ratioP1;P1;durP2;ratioP2;P2;SDS_P1;SDS_P2;PMS_P1;PMS_P2;Temp;Humidity;BMP_temperature;BMP_pressure;BME280_temperature;BME280_humidity;BME280_pressure;Samples;Min_cycle;Max_cycle;Signal;HPM_P1;HPM_P2
2022/04/12 00:00:11;;;;;;;5.67;3.40;;;;;;;5.74;57.07;99222.44;1783997;79;21134;-67
2022/04/12 00:02:39;;;;;;;3.70;3.22;;;;;;;5.72;57.17;99216.97;1803217;79;21551;-67
2022/04/12 00:05:06;;;;;;;4.17;3.77;;;;;;;5.72;57.15;99225.72;1782348;79;21029;-66
2022/04/12 00:07:34;;;;;;;4.12;3.62;;;;;;;5.73;57.15;99225.23;1781423;80;20949;-68
2022/04/12 00:10:03;;;;;;;4.35;3.37;;;;;;;5.72;57.21;99220.44;1781762;80;21487;-63
2022/04/12 00:12:30;;;;;;;3.90;3.45;;;;;;;5.75;57.19;99225.91;1770800;80;21159;-64
2022/04/12 00:14:58;;;;;;;4.33;3.87;;;;;;;5.70;57.25;99222.88;1801653;79;20977;-62
2022/04/12 00:20:11;;;;;;;4.47;4.08;;;;;;;5.64;57.51;99228.25;1775186;80;20852;-65
2022/04/12 00:22:39;;;;;;;4.65;3.55;;;;;;;5.63;57.59;99226.09;1776678;80;20883;-68
2022/04/12 00:25:09;;;;;;;4.45;4.05;;;;;;;5.68;57.38;99228.80;1736298;82;21169;-65
2022/04/12 00:27:39;;;;;;;5.67;4.10;;;;;;;5.63;57.63;99230.05;1794707;80;20971;-67
2022/04/12 00:30:07;;;;;;;5.22;4.30;;;;;;;5.61;57.61;99229.86;1793777;80;20970;-65
2022/04/12 00:32:36;;;;;;;5.47;3.52;;;;;;;5.58;57.70;99232.78;1795174;79;20935;-65
2022/04/12 00:35:03;;;;;;;5.50;4.05;;;;;;;5.58;57.69;99233.61;1795048;80;20962;-64
2022/04/12 00:37:31;;;;;;;4.20;3.80;;;;;;;5.58;57.74;99240.70;1807194;79;21891;-64
2022/04/12 00:39:57;;;;;;;5.87;4.25;;;;;;;5.54;57.78;99234.06;1814493;79;20985;-64
2022/04/12 00:42:24;;;;;;;5.95;4.17;;;;;;;5.55;57.85;99235.22;1800174;79;20902;-64
2022/04/12 00:44:52;;;;;;;6.08;4.55;;;;;;;5.53;57.90;99231.91;1811195;79;20907;-62
2022/04/12 00:47:19;;;;;;;8.43;5.15;;;;;;;5.52;57.99;99230.73;1777269;80;20852;-63
2022/04/12 00:49:45;;;;;;;8.35;5.55;;;;;;;5.51;58.02;99236.98;1768912;81;21255;-65
2022/04/12 00:52:11;;;;;;;9.75;6.22;;;;;;;5.48;58.16;99243.86;1779071;80;21532;-64
2022/04/12 00:54:38;;;;;;;8.83;6.05;;;;;;;5.46;58.20;99249.77;1764616;81;20903;-62
2022/04/12 00:57:05;;;;;;;7.70;5.42;;;;;;;5.44;58.27;99241.18;1729546;83;21484;-69
2022/04/12 00:59:32;;;;;;;6.17;5.40;;;;;;;5.44;58.29;99250.41;1803811;79;21089;-65
2022/04/12 01:01:58;;;;;;;6.85;4.95;;;;;;;5.41;58.39;99249.38;1772160;80;21138;-66
2022/04/12 01:04:25;;;;;;;5.80;4.45;;;;;;;5.53;58.21;99248.22;1736727;82;21044;-62
2022/04/12 01:06:53;;;;;;;7.90;4.80;;;;;;;5.42;58.47;99251.05;1751697;81;20983;-68
2022/04/12 01:09:21;;;;;;;8.60;5.65;;;;;;;5.42;58.58;99249.73;1755659;81;20990;-66
2022/04/12 01:11:48;;;;;;;8.85;5.08;;;;;;;5.44;58.53;99247.29;1745727;81;21121;-64
2022/04/12 01:14:16;;;;;;;7.00;4.60;;;;;;;5.40;58.74;99251.66;1737422;82;21272;-66
2022/04/12 01:16:42;;;;;;;5.85;5.00;;;;;;;5.40;58.85;99251.17;1750164;81;20994;-64
2022/04/12 01:19:09;;;;;;;7.00;5.60;;;;;;;5.40;58.90;99245.90;1743272;81;21003;-66
2022/04/12 01:21:54;;;;;;;6.03;4.28;;;;;;;5.42;58.99;99245.26;1756212;81;20891;-66
2022/04/12 01:24:21;;;;;;;6.12;4.78;;;;;;;5.45;59.04;99239.70;1754016;80;21113;-62
2022/04/12 01:26:47;;;;;;;5.60;4.92;;;;;;;5.48;59.11;99241.22;1739381;82;21141;-65
2022/04/12 01:29:14;;;;;;;5.33;4.70;;;;;;;5.52;59.15;99242.61;1768762;81;20994;-67
2022/04/12 01:31:43;;;;;;;5.42;4.92;;;;;;;5.60;59.10;99244.85;1739222;82;21554;-66
2022/04/12 01:34:09;;;;;;;7.05;5.08;;;;;;;5.58;59.15;99240.70;1759953;81;21087;-66
2022/04/12 01:36:36;;;;;;;6.28;4.97;;;;;;;5.59;59.13;99243.69;1752843;80;21056;-64
2022/04/12 01:39:03;;;;;;;5.62;4.87;;;;;;;5.62;59.11;99243.41;1757893;81;21242;-68
2022/04/12 01:41:31;;;;;;;5.97;4.75;;;;;;;5.57;59.17;99241.69;1686570;84;21054;-65
2022/04/12 01:43:58;;;;;;;6.55;4.87;;;;;;;5.55;59.21;99237.86;1760508;80;20983;-63
2022/04/12 01:46:24;;;;;;;7.97;5.72;;;;;;;5.53;59.24;99240.30;1776928;80;21092;-64
2022/04/12 01:48:51;;;;;;;6.42;5.22;;;;;;;5.52;59.24;99244.77;1775368;80;21610;-67
2022/04/12 01:51:18;;;;;;;9.65;7.05;;;;;;;5.51;59.33;99242.26;1763733;80;21089;-66
2022/04/12 01:53:44;;;;;;;9.08;6.05;;;;;;;5.49;59.30;99242.41;1753028;81;20881;-64
2022/04/12 01:56:11;;;;;;;8.05;6.35;;;;;;;5.45;59.33;99242.82;1741134;80;21505;-67
2022/04/12 01:58:38;;;;;;;7.58;5.45;;;;;;;5.43;59.34;99241.66;1729435;81;21466;-67
2022/04/12 02:01:06;;;;;;;7.67;4.92;;;;;;;5.39;59.46;99243.41;1738883;82;21414;-65
2022/04/12 02:03:33;;;;;;;6.37;5.10;;;;;;;5.36;59.48;99241.06;1759031;81;21053;-66
2022/04/12 02:05:59;;;;;;;6.15;4.87;;;;;;;5.35;59.54;99245.50;1738379;82;21051;-65
2022/04/12 02:08:26;;;;;;;7.12;5.22;;;;;;;5.41;59.47;99244.94;1753887;81;20998;-68
2022/04/12 02:10:54;;;;;;;6.00;5.28;;;;;;;5.29;59.86;99243.93;1721550;82;21071;-66
2022/04/12 02:13:20;;;;;;;6.40;4.80;;;;;;;5.27;59.99;99241.90;1739229;82;20923;-64
2022/04/12 02:15:48;;;;;;;5.03;4.60;;;;;;;5.24;60.15;99244.84;1748144;81;20998;-65
2022/04/12 02:18:15;;;;;;;6.28;5.15;;;;;;;5.23;60.19;99249.28;1766485;80;21073;-62
2022/04/12 02:20:43;;;;;;;8.00;5.70;;;;;;;5.20;60.31;99242.97;1763859;81;20887;-68
2022/04/12 02:23:10;;;;;;;8.60;5.50;;;;;;;5.20;60.35;99248.25;1769078;81;20992;-64
2022/04/12 02:25:38;;;;;;;6.90;5.30;;;;;;;5.17;60.42;99245.05;1769887;80;20876;-66
2022/04/12 02:28:08;;;;;;;6.50;5.75;;;;;;;5.13;60.57;99240.56;1769834;80;20896;-66
2022/04/12 02:30:35;;;;;;;7.55;5.85;;;;;;;5.12;60.64;99247.28;1769853;80;20971;-65
2022/04/12 02:33:01;;;;;;;8.18;5.85;;;;;;;5.12;60.64;99237.57;1781272;79;20994;-68
2022/04/12 02:35:29;;;;;;;7.60;6.20;;;;;;;5.08;60.71;99245.91;1804356;79;21062;-65
2022/04/12 02:37:56;;;;;;;8.23;5.53;;;;;;;5.07;60.71;99249.03;1804956;79;21591;-68
2022/04/12 02:40:40;;;;;;;6.78;5.90;;;;;;;5.02;60.84;99249.94;1714595;83;20880;-66
2022/04/12 02:43:07;;;;;;;8.58;6.00;;;;;;;4.98;61.01;99252.02;1716663;82;21513;-65
2022/04/12 02:45:33;;;;;;;7.80;5.78;;;;;;;4.95;61.13;99250.16;1714718;82;20947;-63
2022/04/12 02:48:00;;;;;;;7.28;5.45;;;;;;;4.93;61.18;99246.34;1695587;82;20967;-63
2022/04/12 02:50:27;;;;;;;8.38;6.55;;;;;;;4.90;61.26;99242.66;1713353;83;20959;-64
2022/04/12 02:52:53;;;;;;;7.95;6.87;;;;;;;4.94;61.24;99246.69;1715235;82;21119;-68
2022/04/12 02:55:20;;;;;;;10.00;6.00;;;;;;;4.94;61.24;99245.38;1684339;85;20915;-68
2022/04/12 02:57:47;;;;;;;8.08;6.25;;;;;;;4.90;61.33;99249.25;1701239;82;20988;-68
2022/04/12 03:00:15;;;;;;;7.65;5.37;;;;;;;4.88;61.35;99245.92;1710452;83;20966;-66
2022/04/12 03:02:42;;;;;;;6.25;5.65;;;;;;;4.82;61.46;99247.79;1690689;83;21006;-65
2022/04/12 03:05:10;;;;;;;6.45;5.33;;;;;;;4.79;61.62;99251.20;1712698;83;21898;-65
2022/04/12 03:07:37;;;;;;;6.17;5.00;;;;;;;4.75;61.68;99249.80;1711693;83;20963;-67
2022/04/12 03:10:05;;;;;;;7.28;5.53;;;;;;;4.74;61.64;99246.36;1699516;83;21040;-65
2022/04/12 03:12:32;;;;;;;6.53;5.45;;;;;;;4.71;61.76;99247.12;1711449;83;21053;-66
2022/04/12 03:15:02;;;;;;;7.20;5.35;;;;;;;4.70;61.87;99254.66;1712898;83;21482;-61
2022/04/12 03:17:29;;;;;;;7.95;6.28;;;;;;;4.65;62.01;99247.18;1712085;83;21309;-65
2022/04/12 03:19:56;;;;;;;6.75;6.05;;;;;;;4.66;62.15;99254.61;1708011;83;21541;-65
2022/04/12 03:22:23;;;;;;;6.10;5.50;;;;;;;4.67;62.21;99259.73;1716101;83;21026;-65
2022/04/12 03:24:50;;;;;;;11.80;7.35;;;;;;;4.71;62.22;99265.09;1712901;83;21066;-66
2022/04/12 03:27:16;;;;;;;7.70;6.95;;;;;;;4.74;62.31;99270.56;1712429;83;21558;-66
2022/04/12 03:29:43;;;;;;;9.88;8.48;;;;;;;4.77;62.29;99265.02;1699368;83;21165;-62
2022/04/12 03:32:09;;;;;;;10.60;7.83;;;;;;;4.78;62.28;99259.59;1717241;83;20915;-64
2022/04/12 03:34:39;;;;;;;10.40;7.90;;;;;;;4.79;62.42;99258.64;1714329;83;20946;-63
2022/04/12 03:37:07;;;;;;;8.40;6.78;;;;;;;4.83;62.47;99258.69;1715501;83;21017;-65
2022/04/12 03:39:34;;;;;;;8.45;7.28;;;;;;;4.88;62.49;99260.91;1712644;83;21093;-64
2022/04/12 03:42:00;;;;;;;10.20;6.97;;;;;;;4.93;62.53;99267.91;1704467;83;21258;-66
2022/04/12 03:44:28;;;;;;;7.92;6.60;;;;;;;5.01;62.50;99271.99;1710383;83;21125;-68
2022/04/12 03:46:54;;;;;;;8.03;6.40;;;;;;;5.08;62.49;99269.64;1688947;83;20985;-69
2022/04/12 03:49:21;;;;;;;7.55;5.85;;;;;;;5.18;62.48;99279.69;1695850;84;20936;-64
2022/04/12 03:51:48;;;;;;;8.78;6.30;;;;;;;5.28;62.46;99277.38;1695045;84;21565;-66
2022/04/12 03:54:14;;;;;;;8.05;6.30;;;;;;;5.44;62.44;99272.84;1735253;82;21204;-64
2022/04/12 03:56:43;;;;;;;7.65;5.78;;;;;;;5.61;62.26;99271.59;1729563;82;20906;-66
2022/04/12 03:59:10;;;;;;;9.68;6.08;;;;;;;5.78;62.10;99271.34;1695943;82;21049;-65
2022/04/12 04:01:37;;;;;;;6.90;5.72;;;;;;;5.97;61.59;99263.86;1695375;82;21082;-70
2022/04/12 04:04:05;;;;;;;8.15;5.95;;;;;;;6.14;61.32;99255.98;1695528;82;21016;-66
2022/04/12 04:06:31;;;;;;;8.43;6.37;;;;;;;6.36;61.06;99255.23;1695172;84;21337;-65
2022/04/12 04:08:59;;;;;;;10.53;8.53;;;;;;;6.58;60.67;99258.27;1694915;84;20994;-68
2022/04/12 04:11:26;;;;;;;8.35;6.40;;;;;;;6.84;60.26;99255.69;1700487;82;20923;-64
2022/04/12 04:13:55;;;;;;;9.60;7.00;;;;;;;7.12;59.88;99263.86;1699355;82;21069;-66
2022/04/12 04:16:23;;;;;;;11.28;6.95;;;;;;;7.42;59.27;99255.98;1696133;84;21155;-65
2022/04/12 04:18:49;;;;;;;7.75;6.55;;;;;;;7.75;58.57;99254.34;1708230;82;21225;-60
2022/04/12 04:21:16;;;;;;;9.30;6.28;;;;;;;8.06;57.79;99256.80;1728663;83;20997;-66
2022/04/12 04:23:42;;;;;;;7.95;7.15;;;;;;;8.27;56.66;99255.92;1723312;82;21410;-66
2022/04/12 04:26:11;;;;;;;11.70;6.40;;;;;;;8.50;55.88;99255.65;1712209;83;21029;-65
2022/04/12 04:28:41;;;;;;;6.78;6.05;;;;;;;8.80;55.09;99263.50;1707944;83;21034;-66
2022/04/12 04:31:05;;;;;;;7.33;5.97;;;;;;;9.13;54.22;99265.66;1695963;82;21245;-66
2022/04/12 04:33:33;;;;;;;10.13;6.40;;;;;;;9.50;53.34;99267.79;1695460;84;20935;-65
2022/04/12 04:36:00;;;;;;;8.45;6.40;;;;;;;9.89;52.32;99264.22;1695512;84;20951;-63
2022/04/12 04:38:27;;;;;;;7.35;6.03;;;;;;;10.29;51.11;99263.77;1696045;83;21019;-66
2022/04/12 04:40:55;;;;;;;8.30;6.95;;;;;;;10.64;50.14;99261.09;1688625;84;21517;-66
2022/04/12 04:43:21;;;;;;;7.92;6.62;;;;;;;11.00;49.21;99256.84;1686853;84;21900;-66
2022/04/12 04:45:48;;;;;;;7.37;6.47;;;;;;;11.39;48.18;99256.67;1686474;85;20904;-65
2022/04/12 04:48:15;;;;;;;7.85;7.05;;;;;;;11.78;47.29;99253.31;1687259;84;21010;-67
2022/04/12 04:50:41;;;;;;;7.92;6.45;;;;;;;12.15;46.28;99254.52;1693115;83;20906;-65
2022/04/12 04:53:10;;;;;;;8.25;6.70;;;;;;;12.54;45.15;99254.70;1710794;83;21436;-65
2022/04/12 04:55:40;;;;;;;10.85;7.12;;;;;;;12.88;44.18;99257.01;1656025;83;21054;-64
2022/04/12 04:58:06;;;;;;;10.18;7.35;;;;;;;13.17;43.23;99261.92;1666682;84;20978;-68
2022/04/12 05:00:34;;;;;;;8.73;7.75;;;;;;;13.46;42.60;99255.92;1688457;83;21552;-68
2022/04/12 05:03:03;;;;;;;8.73;7.87;;;;;;;13.82;41.87;99259.76;1694170;83;21127;-66
2022/04/12 05:05:31;;;;;;;7.90;7.08;;;;;;;14.21;41.12;99261.83;1702524;83;21064;-68
2022/04/12 05:07:59;;;;;;;9.03;7.42;;;;;;;14.61;40.39;99256.16;1703376;84;21265;-65
2022/04/12 05:10:29;;;;;;;8.83;6.85;;;;;;;15.00;39.60;99261.61;1706350;83;21072;-67
2022/04/12 05:12:58;;;;;;;9.10;6.87;;;;;;;15.40;38.75;99263.31;1706016;83;20906;-65
2022/04/12 05:15:27;;;;;;;7.95;6.78;;;;;;;15.84;37.91;99268.55;1683483;83;21041;-65
2022/04/12 05:17:54;;;;;;;10.88;9.65;;;;;;;16.18;37.22;99266.10;1679205;85;21288;-66
2022/04/12 05:20:24;;;;;;;10.63;8.95;;;;;;;16.47;36.78;99272.30;1689988;83;21917;-65
2022/04/12 05:22:53;;;;;;;11.05;8.65;;;;;;;16.81;35.84;99273.31;1711012;83;22164;-68
2022/04/12 05:25:20;;;;;;;10.38;8.33;;;;;;;17.13;35.07;99274.12;1701351;83;21094;-69
2022/04/12 05:27:46;;;;;;;10.60;7.97;;;;;;;17.36;34.22;99282.46;1696203;83;21242;-64
2022/04/12 05:30:14;;;;;;;11.30;8.70;;;;;;;17.57;33.99;99278.60;1704083;83;21544;-66
2022/04/12 05:32:40;;;;;;;13.22;8.93;;;;;;;17.77;33.43;99277.38;1691954;83;21105;-69
2022/04/12 05:35:08;;;;;;;13.38;9.45;;;;;;;18.02;33.21;99278.67;1700771;83;20895;-68
2022/04/12 05:37:43;;;;;;;13.05;9.80;;;;;;;18.35;32.61;99272.39;1702333;84;22192;-69
2022/04/12 05:40:12;;;;;;;12.17;9.60;;;;;;;18.66;32.06;99275.49;1709590;82;22893;-67
2022/04/12 05:42:39;;;;;;;11.05;9.35;;;;;;;18.94;31.50;99273.55;1703532;84;21123;-69
2022/04/12 05:45:08;;;;;;;14.28;10.45;;;;;;;19.18;31.01;99279.84;1703924;84;21704;-68
2022/04/12 05:47:46;;;;;;;13.88;10.45;;;;;;;19.43;30.73;99279.98;1703042;82;21030;-67
2022/04/12 05:50:14;;;;;;;12.85;10.40;;;;;;;19.71;30.08;99288.23;1702603;82;21285;-67
2022/04/12 05:52:41;;;;;;;15.85;11.25;;;;;;;19.93;29.57;99283.61;1708722;82;21019;-68
2022/04/12 05:55:09;;;;;;;17.73;11.83;;;;;;;20.10;29.09;99288.61;1695179;83;21127;-65
2022/04/12 05:57:49;;;;;;;16.90;11.35;;;;;;;20.28;28.85;99285.24;1691525;84;21260;-67
2022/04/12 06:00:18;;;;;;;18.07;11.70;;;;;;;20.51;28.47;99284.39;1695999;84;21102;-67
2022/04/12 06:02:49;;;;;;;17.52;10.98;;;;;;;20.70;28.28;99287.20;1697311;82;21578;-68
2022/04/12 06:05:16;;;;;;;15.15;11.00;;;;;;;20.92;27.83;99282.78;1701738;82;21033;-70
2022/04/12 06:07:44;;;;;;;12.93;11.38;;;;;;;21.11;27.51;99286.67;1698188;82;20974;-67
2022/04/12 06:10:12;;;;;;;15.88;11.18;;;;;;;21.22;27.23;99282.53;1696649;84;22101;-67
2022/04/12 06:12:39;;;;;;;10.45;9.38;;;;;;;21.49;27.12;99287.63;1701505;82;21011;-68
2022/04/12 06:15:08;;;;;;;11.28;8.63;;;;;;;21.85;26.38;99282.23;1705910;82;22327;-66
2022/04/12 06:17:36;;;;;;;10.75;7.85;;;;;;;22.05;25.97;99285.30;1695648;84;20919;-64
2022/04/12 06:20:12;;;;;;;11.43;8.13;;;;;;;22.23;25.36;99284.72;1698885;82;21049;-68
2022/04/12 06:22:38;;;;;;;11.45;8.70;;;;;;;22.30;25.13;99283.98;1690138;82;21121;-67
2022/04/12 06:25:06;;;;;;;14.63;9.85;;;;;;;22.38;24.95;99282.20;1687346;82;21524;-64
2022/04/12 06:27:37;;;;;;;11.40;8.93;;;;;;;22.54;24.80;99285.40;1687057;83;20944;-65
2022/04/12 06:30:12;;;;;;;9.00;7.47;;;;;;;22.81;24.42;99282.25;1687870;82;22103;-65
2022/04/12 06:32:40;;;;;;;11.53;9.13;;;;;;;22.94;24.13;99287.81;1693745;82;20864;-66
2022/04/12 06:35:09;;;;;;;12.65;9.65;;;;;;;23.00;23.99;99287.59;1700205;82;21252;-68
2022/04/12 06:37:39;;;;;;;12.60;10.25;;;;;;;23.20;23.99;99284.28;1713878;82;21577;-64
2022/04/12 06:40:07;;;;;;;13.30;10.30;;;;;;;23.56;23.81;99285.45;1704711;82;21054;-65
2022/04/12 06:42:36;;;;;;;13.45;9.63;;;;;;;23.91;23.26;99280.28;1721647;83;20990;-65
2022/04/12 06:45:03;;;;;;;10.13;8.15;;;;;;;24.24;22.84;99285.44;1729141;82;20915;-65
2022/04/12 06:47:34;;;;;;;18.65;10.18;;;;;;;24.51;22.44;99288.81;1724448;82;20974;-65
2022/04/12 06:50:01;;;;;;;14.75;9.75;;;;;;;24.69;21.91;99284.01;1726191;82;20918;-65
2022/04/12 06:52:28;;;;;;;10.90;8.50;;;;;;;24.81;21.64;99290.06;1711701;82;21423;-66
2022/04/12 06:54:54;;;;;;;14.80;9.70;;;;;;;24.88;21.48;99283.81;1721401;82;20998;-64
2022/04/12 06:57:21;;;;;;;11.95;7.90;;;;;;;24.87;21.37;99281.62;1723227;82;21066;-64
2022/04/12 06:59:47;;;;;;;12.78;9.50;;;;;;;25.01;21.58;99282.77;1719378;82;22342;-67
2022/04/12 07:02:14;;;;;;;13.65;9.93;;;;;;;25.26;20.93;99286.09;1725672;82;21560;-67
2022/04/12 07:04:41;;;;;;;15.90;12.95;;;;;;;25.61;20.56;99288.05;1722130;82;20887;-62
2022/04/12 07:07:08;;;;;;;11.80;9.90;;;;;;;25.61;20.56;99288.05;1718892;82;20904;-65
2022/04/12 07:09:35;;;;;;;17.02;10.70;;;;;;;25.81;20.17;99281.25;1729299;82;20998;-65
2022/04/12 07:12:04;;;;;;;11.18;7.17;;;;;;;25.99;19.93;99290.22;1725315;82;21911;-65
2022/04/12 07:14:31;;;;;;;8.35;6.30;;;;;;;25.92;19.39;99285.58;1714986;82;20978;-66
2022/04/12 07:16:58;;;;;;;9.65;6.92;;;;;;;25.74;19.57;99288.32;1727347;81;20947;-67
2022/04/12 07:19:25;;;;;;;11.85;7.75;;;;;;;25.76;19.28;99285.31;1727515;82;21000;-66
2022/04/12 07:21:53;;;;;;;12.43;8.30;;;;;;;25.60;19.45;99291.30;1735699;82;20862;-64
2022/04/12 07:24:20;;;;;;;9.13;7.22;;;;;;;25.62;19.56;99293.77;1724400;82;22600;-64
2022/04/12 07:26:46;;;;;;;11.10;6.95;;;;;;;25.66;19.27;99288.86;1709008;81;21050;-67
2022/04/12 07:29:13;;;;;;;8.45;6.28;;;;;;;25.66;19.36;99297.58;1720564;83;20947;-67
2022/04/12 07:31:40;;;;;;;6.90;5.20;;;;;;;25.84;19.00;99290.78;1721869;83;20967;-69
2022/04/12 07:34:07;;;;;;;6.97;3.98;;;;;;;25.84;18.89;99294.30;1720262;82;20944;-68
2022/04/12 07:36:36;;;;;;;6.12;3.40;;;;;;;26.01;18.65;99294.84;1721843;83;22094;-66
2022/04/12 07:39:02;;;;;;;4.12;2.95;;;;;;;26.12;18.37;99303.82;1721600;82;20978;-66
2022/04/12 07:41:29;;;;;;;4.20;3.22;;;;;;;26.25;18.15;99301.92;1713948;82;21455;-64
2022/04/12 07:43:56;;;;;;;4.87;3.35;;;;;;;26.39;17.88;99293.41;1713859;83;20971;-66
2022/04/12 07:46:23;;;;;;;4.58;3.62;;;;;;;26.40;17.58;99288.23;1713880;83;21035;-69
2022/04/12 07:48:50;;;;;;;6.40;3.17;;;;;;;26.29;17.61;99290.72;1711177;83;21263;-66
2022/04/12 07:51:17;;;;;;;6.58;2.85;;;;;;;26.27;17.61;99295.64;1713845;82;21625;-69
2022/04/12 07:53:45;;;;;;;6.47;2.85;;;;;;;26.30;17.78;99297.81;1713757;83;21497;-64
2022/04/12 07:56:12;;;;;;;4.53;2.47;;;;;;;26.56;17.60;99285.73;1713589;83;20943;-69
2022/04/12 07:58:39;;;;;;;4.45;2.20;;;;;;;26.75;16.89;99270.34;1714256;82;20883;-64
2022/04/12 08:01:07;;;;;;;3.75;2.20;;;;;;;26.66;16.71;99280.77;1713876;83;22581;-67
2022/04/12 08:03:36;;;;;;;7.83;2.85;;;;;;;26.79;16.81;99281.02;1711175;83;20944;-65
2022/04/12 08:06:03;;;;;;;5.15;3.67;;;;;;;27.21;16.71;99275.59;1713777;82;21560;-65
2022/04/12 08:08:36;;;;;;;7.15;2.20;;;;;;;27.56;16.57;99269.34;1711223;82;22317;-64
2022/04/12 08:11:01;;;;;;;5.65;2.45;;;;;;;27.89;16.00;99270.97;1712668;83;21437;-66
2022/04/12 08:13:29;;;;;;;3.10;2.50;;;;;;;28.14;15.88;99274.30;1703303;83;20868;-65
2022/04/12 08:15:56;;;;;;;7.45;5.50;;;;;;;28.29;15.74;99273.30;1710942;83;20920;-65
2022/04/12 08:18:25;;;;;;;7.28;4.67;;;;;;;28.47;15.55;99273.12;1685527;84;21513;-67
2022/04/12 08:20:51;;;;;;;6.62;2.72;;;;;;;28.67;15.16;99264.13;1718565;83;21450;-67
2022/04/12 08:23:26;;;;;;;4.25;2.47;;;;;;;28.02;15.22;99273.88;1712675;83;21551;-63
2022/04/12 08:25:53;;;;;;;5.08;3.00;;;;;;;27.30;15.63;99276.59;1713120;83;21141;-66
2022/04/12 08:28:20;;;;;;;7.92;2.80;;;;;;;27.00;15.60;99265.89;1713069;83;20942;-67
2022/04/12 08:30:46;;;;;;;6.33;2.50;;;;;;;26.51;16.11;99272.11;1713966;83;20947;-67
2022/04/12 08:33:15;;;;;;;10.70;3.20;;;;;;;26.09;16.52;99278.47;1709925;82;21056;-63
2022/04/12 08:35:43;;;;;;;3.17;2.20;;;;;;;26.67;16.53;99266.84;1713891;82;21482;-63
2022/04/12 08:38:10;;;;;;;3.35;1.90;;;;;;;26.10;16.31;99273.27;1714211;83;21277;-64
2022/04/12 08:40:38;;;;;;;3.50;1.92;;;;;;;25.70;16.09;99268.72;1714651;83;21113;-66
2022/04/12 08:43:05;;;;;;;9.15;2.00;;;;;;;25.73;16.11;99270.33;1661997;85;20982;-67
2022/04/12 08:45:33;;;;;;;5.85;2.15;;;;;;;26.17;16.15;99268.40;1690225;84;21602;-63
2022/04/12 08:48:00;;;;;;;2.40;1.75;;;;;;;26.74;15.63;99270.09;1717852;83;20891;-64
2022/04/12 08:50:28;;;;;;;4.60;1.82;;;;;;;26.92;15.27;99262.67;1711615;83;21473;-66
2022/04/12 08:52:54;;;;;;;7.35;1.92;;;;;;;25.82;15.64;99265.69;1721636;83;21461;-67
2022/04/12 08:55:23;;;;;;;7.92;1.98;;;;;;;24.96;16.09;99264.25;1720727;83;21510;-68
2022/04/12 08:57:50;;;;;;;5.70;2.70;;;;;;;24.65;16.44;99272.02;1719127;82;20946;-65
2022/04/12 09:00:18;;;;;;;3.95;1.75;;;;;;;24.25;16.94;99272.10;1722004;82;21535;-62
2022/04/12 09:02:57;;;;;;;7.58;2.15;;;;;;;23.91;17.01;99269.41;1718953;83;21833;-64
2022/04/12 09:05:21;;;;;;;3.25;2.10;;;;;;;23.91;17.01;99269.41;1720874;83;21060;-66
2022/04/12 09:07:48;;;;;;;3.17;2.22;;;;;;;23.25;17.43;99273.48;1720537;83;20962;-65
2022/04/12 09:10:16;;;;;;;5.62;2.52;;;;;;;22.52;18.01;99282.95;1717627;83;21507;-65
2022/04/12 09:12:43;;;;;;;3.70;1.75;;;;;;;21.87;18.59;99285.57;1721818;83;20888;-65
2022/04/12 09:15:14;;;;;;;3.35;1.52;;;;;;;21.49;18.53;99284.92;1721897;83;21738;-67
2022/04/12 09:17:44;;;;;;;3.52;1.85;;;;;;;21.62;18.41;99285.12;1721546;82;20947;-67
2022/04/12 09:20:17;;;;;;;4.10;1.77;;;;;;;22.47;18.23;99282.89;1720337;82;20923;-62
2022/04/12 09:22:43;;;;;;;3.45;1.37;;;;;;;22.99;18.10;99274.30;1717995;83;20962;-66
2022/04/12 09:25:11;;;;;;;4.60;2.05;;;;;;;23.43;17.97;99268.23;1721523;83;21410;-62
2022/04/12 09:27:39;;;;;;;3.37;1.70;;;;;;;23.19;17.64;99273.96;1722072;83;21765;-64
2022/04/12 09:30:09;;;;;;;5.75;1.80;;;;;;;22.91;17.65;99272.04;1718809;83;20994;-67
2022/04/12 09:32:41;;;;;;;4.70;2.02;;;;;;;22.20;18.06;99273.02;1719074;83;20939;-66
2022/04/12 09:35:08;;;;;;;2.27;1.40;;;;;;;21.60;18.44;99277.78;1721749;83;20907;-67
2022/04/12 09:37:38;;;;;;;3.02;1.67;;;;;;;20.87;18.91;99275.93;1718975;83;21037;-66
2022/04/12 09:40:11;;;;;;;9.90;1.95;;;;;;;20.20;19.38;99284.78;1717356;83;21176;-63
2022/04/12 09:42:53;;;;;;;3.50;1.90;;;;;;;20.55;19.24;99278.79;1716823;82;20936;-64
2022/04/12 09:45:27;;;;;;;2.95;1.72;;;;;;;21.42;18.81;99272.61;1712982;83;21543;-66
2022/04/12 09:47:57;;;;;;;2.20;1.50;;;;;;;21.29;18.91;99266.16;1713935;83;21018;-63
2022/04/12 09:50:27;;;;;;;3.75;1.70;;;;;;;21.28;18.94;99258.58;1716438;82;21568;-66
2022/04/12 09:53:02;;;;;;;8.58;2.77;;;;;;;20.74;19.42;99254.59;1716386;82;21962;-63
2022/04/12 09:55:35;;;;;;;4.60;1.85;;;;;;;20.16;19.86;99266.86;1668067;85;20948;-66
2022/04/12 09:58:03;;;;;;;3.22;1.60;;;;;;;19.54;20.31;99264.35;1712229;83;20935;-64
2022/04/12 10:00:30;;;;;;;5.58;2.80;;;;;;;18.90;20.87;99266.98;1713947;83;21021;-67
2022/04/12 10:02:59;;;;;;;11.78;3.80;;;;;;;19.19;20.77;99267.47;1710672;82;20990;-66
2022/04/12 10:05:26;;;;;;;6.00;2.80;;;;;;;19.84;20.49;99267.48;1664255;85;21845;-66
2022/04/12 10:07:53;;;;;;;8.15;3.02;;;;;;;20.59;20.00;99257.53;1718540;83;20851;-61
2022/04/12 10:10:20;;;;;;;10.55;3.00;;;;;;;20.82;19.85;99257.44;1714707;82;20941;-65
2022/04/12 10:12:48;;;;;;;4.05;1.98;;;;;;;20.58;20.25;99262.10;1714197;83;21490;-68
2022/04/12 10:15:14;;;;;;;3.83;2.20;;;;;;;20.38;20.50;99253.59;1692302;83;21084;-66
2022/04/12 10:17:41;;;;;;;4.92;2.60;;;;;;;20.03;20.88;99271.69;1714283;83;21828;-64
2022/04/12 10:20:09;;;;;;;4.53;2.67;;;;;;;19.65;21.25;99271.64;1709894;83;20920;-65
2022/04/12 10:22:36;;;;;;;5.35;3.22;;;;;;;19.30;21.69;99273.42;1718686;83;21482;-66
2022/04/12 10:25:03;;;;;;;5.72;3.37;;;;;;;19.07;21.96;99273.36;1714387;82;20907;-66
2022/04/12 10:27:31;;;;;;;8.50;2.67;;;;;;;18.88;22.44;99263.67;1711367;83;21437;-67
2022/04/12 10:30:21;;;;;;;11.53;4.10;;;;;;;18.85;22.67;99261.46;1714256;82;21146;-64
2022/04/12 10:33:07;;;;;;;5.03;1.85;;;;;;;19.09;22.77;99256.42;1694266;83;20955;-68
2022/04/12 10:35:48;;;;;;;7.97;2.27;;;;;;;19.24;22.28;99258.16;1705109;83;21014;-64
2022/04/12 10:38:16;;;;;;;9.00;2.47;;;;;;;19.07;22.06;99268.80;1713483;83;21702;-65
2022/04/12 10:40:44;;;;;;;5.72;2.02;;;;;;;18.72;22.35;99275.91;1713738;82;20985;-66
2022/04/12 10:43:14;;;;;;;8.00;1.92;;;;;;;18.41;22.61;99285.48;1709694;82;21568;-65
2022/04/12 10:45:49;;;;;;;5.83;2.10;;;;;;;18.20;23.00;99269.27;1713893;83;20888;-64
2022/04/12 10:48:27;;;;;;;4.05;2.00;;;;;;;17.96;23.28;99271.52;1709770;83;21029;-66
2022/04/12 10:50:56;;;;;;;4.08;1.77;;;;;;;17.82;23.70;99270.81;1714167;82;21029;-62
2022/04/12 10:53:43;;;;;;;3.80;1.77;;;;;;;17.86;23.75;99269.31;1713136;83;20958;-62
2022/04/12 10:56:13;;;;;;;9.75;2.72;;;;;;;17.83;23.36;99258.19;1712305;82;20896;-63
2022/04/12 10:58:40;;;;;;;4.40;1.90;;;;;;;17.70;23.38;99263.14;1713828;83;20939;-66
2022/04/12 11:01:12;;;;;;;5.90;2.08;;;;;;;17.73;23.17;99244.39;1712352;83;20999;-68
2022/04/12 11:03:46;;;;;;;2.77;1.90;;;;;;;17.60;23.45;99257.97;1712413;82;20928;-64
2022/04/12 11:06:23;;;;;;;5.12;1.95;;;;;;;17.58;23.91;99262.75;1712537;82;20962;-65
2022/04/12 11:08:53;;;;;;;4.15;1.87;;;;;;;17.61;24.08;99259.63;1699573;83;21857;-65
2022/04/12 11:11:30;;;;;;;4.22;1.75;;;;;;;17.55;23.59;99264.53;1713153;83;21033;-63
2022/04/12 11:14:26;;;;;;;1.57;1.30;;;;;;;17.48;23.50;99265.08;1712318;83;21489;-65
2022/04/12 11:17:02;;;;;;;2.20;1.50;;;;;;;17.48;23.60;99249.78;1709163;83;21584;-66
2022/04/12 11:19:43;;;;;;;3.92;1.62;;;;;;;17.45;23.60;99257.45;1704330;83;20916;-68
2022/04/12 11:22:14;;;;;;;6.30;1.80;;;;;;;17.44;23.75;99261.20;1710803;83;21148;-67
2022/04/12 11:24:41;;;;;;;3.90;1.82;;;;;;;17.46;24.16;99252.38;1712555;83;21489;-63
2022/04/12 11:27:12;;;;;;;6.75;2.30;;;;;;;17.58;24.20;99255.51;1711054;83;21481;-63
2022/04/12 11:29:41;;;;;;;3.92;1.80;;;;;;;17.73;24.19;99257.84;1714085;83;21018;-66
2022/04/12 11:32:10;;;;;;;5.05;1.70;;;;;;;17.76;23.79;99251.52;1713538;83;21042;-66
2022/04/12 11:34:39;;;;;;;11.25;2.55;;;;;;;17.70;23.67;99256.97;1713887;82;21250;-67
2022/04/12 11:37:09;;;;;;;5.33;3.30;;;;;;;17.64;23.84;99261.87;1709572;83;21043;-63
2022/04/12 11:39:40;;;;;;;6.50;2.47;;;;;;;17.54;23.97;99265.08;1713576;83;20979;-66
2022/04/12 11:42:09;;;;;;;7.72;2.55;;;;;;;17.31;23.94;99262.13;1698323;83;20987;-69